Time;durP1;ratioP1;P1;durP2;ratioP2;P2;SDS_P1;SDS_P2;PMS_P1;PMS_P2;Temp;Humidity;BMP_temperature;BMP_pressure;BME280_temperature;BME280_humidity;BME280_pressure;Samples;Min_cycle;Max_cycle;Signal;HPM_P1;HPM_P2
2022/07/26 00:00:52;;;;;;;;;2.00;2.00;;;;;21.36;55.97;101251.75;5038365;28;45272;-72
2022/07/26 00:03:17;;;;;;;;;1.00;1.00;;;;;21.33;57.01;101246.84;5039892;28;45335;-71
2022/07/26 00:05:43;;;;;;;;;1.00;1.00;;;;;21.33;56.30;101244.16;5040035;28;45269;-72
2022/07/26 00:08:11;;;;;;;;;1.00;1.00;;;;;21.31;56.77;101252.50;5051200;28;47062;-72
2022/07/26 00:10:42;;;;;;;;;3.67;2.00;;;;;21.27;57.06;101265.66;5044625;28;45319;-72
2022/07/26 00:13:09;;;;;;;;;1.33;0.33;;;;;21.21;57.00;101258.47;5059768;28;45332;-72
2022/07/26 00:15:35;;;;;;;;;2.00;1.00;;;;;21.15;57.40;101253.97;5059622;28;45332;-72
2022/07/26 00:18:01;;;;;;;;;2.00;1.00;;;;;21.05;57.90;101257.28;5053081;28;46298;-72
2022/07/26 00:20:26;;;;;;;;;2.00;2.00;;;;;20.98;57.93;101260.06;5059580;28;45309;-72
2022/07/26 00:22:51;;;;;;;;;1.33;1.33;;;;;20.92;58.12;101263.72;5059881;28;45359;-72
2022/07/26 00:25:17;;;;;;;;;2.00;1.33;;;;;20.86;58.04;101264.59;5059568;28;45304;-72
2022/07/26 00:27:42;;;;;;;;;2.00;2.00;;;;;20.81;58.65;101262.59;5054728;28;47746;-72
2022/07/26 00:30:09;;;;;;;;;2.00;2.00;;;;;20.76;58.60;101260.56;5050734;28;45332;-72
2022/07/26 00:32:36;;;;;;;;;1.00;1.00;;;;;20.77;58.91;101261.41;5059663;28;45381;-71
2022/07/26 00:35:01;;;;;;;;;2.33;2.33;;;;;20.70;59.18;101256.09;5059466;28;45232;-72
2022/07/26 00:37:26;;;;;;;;;2.33;2.33;;;;;20.69;59.00;101249.84;5059315;28;45584;-72
2022/07/26 00:39:52;;;;;;;;;3.00;2.00;;;;;20.63;59.17;101255.38;5059026;28;45224;-72
2022/07/26 00:42:17;;;;;;;;;3.00;3.00;;;;;20.61;59.53;101265.56;5059815;28;45395;-72
2022/07/26 00:44:44;;;;;;;;;4.00;2.00;;;;;20.57;59.49;101267.91;5059154;28;45257;-72
2022/07/26 00:47:10;;;;;;;;;2.00;2.00;;;;;20.51;59.52;101258.88;5059294;28;46401;-72
2022/07/26 00:49:36;;;;;;;;;4.00;3.33;;;;;20.46;59.93;101269.50;5055392;28;45331;-72
2022/07/26 00:52:04;;;;;;;;;2.00;2.00;;;;;20.39;60.13;101255.28;5041302;28;45451;-72
2022/07/26 00:54:29;;;;;;;;;0.33;0.33;;;;;20.37;60.35;101260.06;5059027;28;45489;-72
2022/07/26 00:56:54;;;;;;;;;2.67;2.67;;;;;20.22;60.63;101245.09;5059059;28;46326;-71
2022/07/26 00:59:20;;;;;;;;;1.00;1.00;;;;;20.24;60.60;101256.50;5058952;28;45339;-71
2022/07/26 01:01:46;;;;;;;;;1.67;1.67;;;;;20.19;60.71;101264.44;5059154;28;45351;-71
2022/07/26 01:04:11;;;;;;;;;3.00;2.00;;;;;20.14;60.99;101264.31;5059363;28;45447;-72
2022/07/26 01:06:37;;;;;;;;;2.33;2.33;;;;;20.09;61.40;101261.44;5058869;28;46495;-71
2022/07/26 01:09:04;;;;;;;;;2.67;1.33;;;;;20.10;61.59;101260.41;5040859;28;45699;-72
2022/07/26 01:11:30;;;;;;;;;5.00;4.00;;;;;20.16;61.55;101267.59;5058911;28;45538;-72
2022/07/26 01:13:55;;;;;;;;;2.00;2.00;;;;;20.20;61.47;101268.78;5058681;28;45347;-71
2022/07/26 01:16:20;;;;;;;;;3.00;3.00;;;;;20.22;61.22;101258.59;5065176;28;45460;-72
2022/07/26 01:18:46;;;;;;;;;2.67;2.00;;;;;20.22;61.37;101247.81;5059237;28;45319;-72
2022/07/26 01:21:11;;;;;;;;;2.00;2.00;;;;;20.26;61.82;101249.00;5059213;28;45293;-72
2022/07/26 01:23:37;;;;;;;;;2.33;2.33;;;;;20.28;61.73;101257.69;5058739;28;45399;-72
2022/07/26 01:26:03;;;;;;;;;1.33;1.33;;;;;20.30;62.20;101246.69;5058627;28;45571;-71
2022/07/26 01:28:29;;;;;;;;;1.00;1.00;;;;;20.30;61.87;101247.47;5049366;28;45487;-71
2022/07/26 01:30:55;;;;;;;;;2.00;1.33;;;;;20.27;62.14;101250.66;5058608;28;45343;-72
2022/07/26 01:33:21;;;;;;;;;1.00;1.00;;;;;20.21;62.37;101248.88;5047165;28;46181;-71
2022/07/26 01:35:47;;;;;;;;;1.00;1.00;;;;;20.13;62.66;101252.69;5040455;28;47530;-72
2022/07/26 01:38:13;;;;;;;;;1.33;1.33;;;;;20.15;62.76;101257.84;5058721;28;45228;-72
2022/07/26 01:40:38;;;;;;;;;1.33;1.33;;;;;20.09;62.54;101246.09;5058916;28;45185;-72
2022/07/26 01:43:03;;;;;;;;;2.00;2.00;;;;;20.06;63.17;101241.16;5058497;28;45428;-71
2022/07/26 01:45:29;;;;;;;;;2.33;2.33;;;;;20.09;63.15;101243.41;5058388;28;46501;-71
2022/07/26 01:47:54;;;;;;;;;2.00;2.00;;;;;20.06;63.08;101251.94;5054669;28;45288;-72
2022/07/26 01:50:19;;;;;;;;;1.00;1.00;;;;;20.04;63.17;101249.47;5040597;28;45371;-71
2022/07/26 01:52:45;;;;;;;;;4.00;2.67;;;;;20.01;63.49;101249.09;5041525;28;46196;-72
2022/07/26 01:55:10;;;;;;;;;2.33;2.33;;;;;19.96;62.72;101252.44;5062055;28;45424;-72
2022/07/26 01:57:35;;;;;;;;;2.67;2.67;;;;;19.92;63.23;101253.94;5061951;28;45379;-72
2022/07/26 02:00:04;;;;;;;;;2.00;2.00;;;;;19.86;63.30;101252.13;5061740;28;45448;-72
2022/07/26 02:02:29;;;;;;;;;2.00;2.00;;;;;19.84;63.48;101251.53;5043649;28;46844;-71
2022/07/26 02:04:57;;;;;;;;;1.00;1.00;;;;;19.76;64.48;101250.78;5061549;28;47545;-71
2022/07/26 02:07:23;;;;;;;;;2.00;2.00;;;;;19.78;63.69;101253.25;5043747;28;45304;-72
2022/07/26 02:09:49;;;;;;;;;3.00;3.00;;;;;19.70;63.98;101257.06;5061594;28;46217;-73
2022/07/26 02:12:15;;;;;;;;;1.33;1.33;;;;;19.66;64.41;101261.25;5061677;28;45314;-72
2022/07/26 02:14:40;;;;;;;;;2.33;2.33;;;;;19.65;64.38;101263.13;5053986;28;47257;-72
2022/07/26 02:17:06;;;;;;;;;3.00;2.00;;;;;19.60;64.66;101262.16;5068077;28;45272;-72
2022/07/26 02:19:32;;;;;;;;;2.00;2.00;;;;;19.54;64.31;101256.59;5043731;28;45377;-72
2022/07/26 02:21:58;;;;;;;;;1.00;1.00;;;;;19.56;64.89;101264.47;5061481;28;45337;-71
2022/07/26 02:24:27;;;;;;;;;2.33;2.33;;;;;19.54;64.78;101253.06;5061506;28;45378;-72
2022/07/26 02:26:53;;;;;;;;;2.33;2.33;;;;;19.47;65.23;101255.00;5061471;28;45402;-72
2022/07/26 02:29:18;;;;;;;;;2.00;2.00;;;;;19.43;65.64;101251.94;5061329;28;45336;-72
2022/07/26 02:31:44;;;;;;;;;4.00;2.33;;;;;19.40;65.68;101245.09;5061548;28;45320;-72
2022/07/26 02:34:09;;;;;;;;;2.00;2.00;;;;;19.41;65.86;101243.25;5061190;28;46358;-71
2022/07/26 02:36:34;;;;;;;;;3.00;3.00;;;;;19.40;65.82;101250.50;5043525;28;45404;-71
2022/07/26 02:39:00;;;;;;;;;3.33;3.33;;;;;19.37;65.98;101250.13;5061158;28;45573;-72
2022/07/26 02:41:25;;;;;;;;;2.33;2.33;;;;;19.34;66.22;101251.41;5061405;28;45388;-71
2022/07/26 02:43:50;;;;;;;;;1.67;1.67;;;;;19.29;66.56;101252.06;5061029;28;45484;-72
2022/07/26 02:46:16;;;;;;;;;3.00;3.00;;;;;19.29;66.53;101252.06;5060982;28;45414;-72
2022/07/26 02:48:41;;;;;;;;;3.33;2.00;;;;;19.27;66.58;101248.75;5061438;28;45300;-72
2022/07/26 02:51:06;;;;;;;;;4.33;3.00;;;;;19.27;66.55;101243.34;5060872;28;45644;-71
2022/07/26 02:53:32;;;;;;;;;4.00;3.00;;;;;19.31;66.78;101246.44;5043080;28;48380;-72
2022/07/26 02:55:57;;;;;;;;;1.67;1.67;;;;;19.34;66.99;101254.09;5061053;28;45376;-72
2022/07/26 02:58:23;;;;;;;;;4.00;2.67;;;;;19.36;67.43;101245.78;5061263;28;45365;-71
2022/07/26 03:00:49;;;;;;;;;4.00;3.00;;;;;19.43;66.96;101254.63;5060944;28;45280;-72
2022/07/26 03:03:15;;;;;;;;;2.00;2.00;;;;;19.39;67.30;101258.78;5060255;28;46083;-72
2022/07/26 03:05:40;;;;;;;;;3.00;3.00;;;;;19.41;67.14;101257.56;5061226;28;45571;-72
2022/07/26 03:08:06;;;;;;;;;2.00;2.00;;;;;19.37;67.33;101248.25;5060881;28;45292;-72
2022/07/26 03:10:32;;;;;;;;;1.00;1.00;;;;;19.38;66.70;101257.16;5060721;28;45296;-71
2022/07/26 03:12:58;;;;;;;;;5.00;2.33;;;;;19.37;67.10;101261.75;5053335;28;47139;-72
2022/07/26 03:15:23;;;;;;;;;3.33;2.33;;;;;19.31;67.30;101265.31;5060584;28;45343;-71
2022/07/26 03:17:48;;;;;;;;;4.00;4.00;;;;;19.32;67.14;101253.47;5067324;28;45490;-72
2022/07/26 03:20:14;;;;;;;;;2.67;2.67;;;;;19.31;67.41;101268.00;5057075;28;46201;-72
2022/07/26 03:22:40;;;;;;;;;3.00;3.00;;;;;19.20;67.81;101252.53;5042525;28;47214;-71
2022/07/26 03:25:06;;;;;;;;;4.00;2.33;;;;;19.20;67.78;101264.16;5060377;28;45363;-72
2022/07/26 03:27:31;;;;;;;;;3.00;3.00;;;;;19.20;67.91;101266.84;5060456;28;45389;-72
2022/07/26 03:29:57;;;;;;;;;1.67;1.67;;;;;19.14;68.11;101263.16;5060268;28;45357;-72
2022/07/26 03:32:22;;;;;;;;;1.67;0.00;;;;;19.11;67.97;101263.59;5060348;28;46162;-71
2022/07/26 03:34:48;;;;;;;;;1.00;1.00;;;;;19.06;67.96;101263.38;5042422;28;46097;-72
2022/07/26 03:37:13;;;;;;;;;1.00;1.00;;;;;19.06;68.25;101274.16;5053169;28;45327;-71
2022/07/26 03:39:39;;;;;;;;;3.00;2.00;;;;;19.03;68.28;101272.72;5060172;28;45581;-72
2022/07/26 03:42:05;;;;;;;;;1.33;1.33;;;;;19.02;68.46;101268.41;5060393;28;45787;-71
2022/07/26 03:44:30;;;;;;;;;4.00;2.67;;;;;19.01;68.45;101276.69;5060088;28;45343;-72
2022/07/26 03:46:56;;;;;;;;;2.00;2.00;;;;;19.02;68.59;101281.03;5060487;28;45248;-71
2022/07/26 03:49:21;;;;;;;;;3.00;3.00;;;;;19.00;68.89;101283.94;5060052;28;45724;-72
2022/07/26 03:51:47;;;;;;;;;3.00;3.00;;;;;18.97;68.76;101278.19;5046191;28;48009;-71
2022/07/26 03:54:12;;;;;;;;;2.67;2.67;;;;;18.95;69.04;101277.56;5060057;28;45293;-72
2022/07/26 03:56:38;;;;;;;;;1.00;1.00;;;;;18.92;68.70;101281.53;5058238;28;45447;-71
2022/07/26 03:59:08;;;;;;;;;2.00;2.00;;;;;18.93;68.91;101286.69;5059825;28;45503;-72
2022/07/26 04:01:35;;;;;;;;;3.00;1.33;;;;;18.91;69.00;101294.16;5059719;28;45289;-71
2022/07/26 04:04:01;;;;;;;;;1.00;1.00;;;;;18.84;69.40;101290.69;5059970;28;45459;-71
2022/07/26 04:06:27;;;;;;;;;3.00;3.00;;;;;18.79;69.15;101290.50;5054834;28;45257;-72
2022/07/26 04:08:53;;;;;;;;;2.00;2.00;;;;;18.77;69.66;101292.59;5059940;28;45286;-71
2022/07/26 04:11:19;;;;;;;;;2.00;2.00;;;;;18.77;69.58;101292.59;5041717;28;47058;-72
2022/07/26 04:13:44;;;;;;;;;3.00;2.00;;;;;18.74;69.50;101296.50;5059836;28;45328;-71
2022/07/26 04:16:09;;;;;;;;;3.67;1.67;;;;;18.71;69.71;101288.06;5064027;28;45339;-72
2022/07/26 04:18:35;;;;;;;;;2.00;2.00;;;;;18.70;70.30;101292.63;5061393;28;45496;-71
2022/07/26 04:21:00;;;;;;;;;2.67;2.67;;;;;18.70;70.16;101294.50;5059845;28;46177;-71
2022/07/26 04:23:26;;;;;;;;;4.33;2.67;;;;;18.73;70.45;101302.94;5059610;28;45367;-71
2022/07/26 04:25:51;;;;;;;;;2.00;2.00;;;;;18.72;70.71;101300.47;5059837;28;45339;-71
2022/07/26 04:28:17;;;;;;;;;2.00;1.67;;;;;18.73;70.79;101300.25;5059586;28;45348;-71
2022/07/26 04:30:43;;;;;;;;;2.33;2.00;;;;;18.84;71.04;101303.31;5053677;28;47956;-71
2022/07/26 04:33:08;;;;;;;;;4.33;3.00;;;;;18.84;71.28;101295.22;5059647;28;45386;-71
2022/07/26 04:35:34;;;;;;;;;3.00;3.00;;;;;18.95;70.70;101294.56;5059811;28;45835;-71
2022/07/26 04:38:01;;;;;;;;;1.67;1.67;;;;;18.99;70.89;101293.06;5059519;28;46116;-71
2022/07/26 04:40:27;;;;;;;;;3.00;3.00;;;;;19.09;70.94;101300.69;5059504;28;45390;-72
2022/07/26 04:42:53;;;;;;;;;4.00;3.67;;;;;19.15;70.58;101301.69;5059267;28;45178;-71
2022/07/26 04:45:19;;;;;;;;;3.67;2.00;;;;;19.19;70.86;101294.84;5048167;28;45203;-72
2022/07/26 04:47:50;;;;;;;;;3.00;3.00;;;;;19.33;70.64;101295.53;5041044;28;46507;-72
2022/07/26 04:50:20;;;;;;;;;6.00;6.00;;;;;19.38;70.76;101292.19;5059252;28;46399;-71
2022/07/26 04:52:46;;;;;;;;;2.00;2.00;;;;;19.46;70.21;101297.31;5059075;28;45778;-72
2022/07/26 04:55:11;;;;;;;;;3.33;3.33;;;;;19.53;70.52;101303.47;5059561;28;45370;-71
2022/07/26 04:57:37;;;;;;;;;3.00;2.00;;;;;19.58;70.32;101307.38;5059132;28;45298;-71
2022/07/26 05:00:06;;;;;;;;;3.33;3.33;;;;;19.63;69.93;101304.84;5058836;28;46165;-72
2022/07/26 05:02:31;;;;;;;;;3.00;3.00;;;;;19.71;70.16;101309.94;5059250;28;45220;-72
2022/07/26 05:04:56;;;;;;;;;6.00;4.00;;;;;19.76;70.06;101306.59;5059141;28;45201;-71
2022/07/26 05:07:22;;;;;;;;;5.00;4.00;;;;;19.87;70.58;101310.44;5040916;28;46630;-71
2022/07/26 05:09:47;;;;;;;;;3.00;3.00;;;;;19.90;69.79;101309.97;5053314;28;46801;-72
2022/07/26 05:12:13;;;;;;;;;16.67;15.00;;;;;19.95;69.78;101312.81;5058952;28;45221;-73
2022/07/26 05:14:38;;;;;;;;;9.00;9.00;;;;;19.99;69.42;101315.91;5059107;28;45461;-73
2022/07/26 05:17:04;;;;;;;;;4.67;4.00;;;;;20.01;69.99;101305.72;5065263;28;45316;-73
2022/07/26 05:19:30;;;;;;;;;5.67;5.00;;;;;20.06;69.49;101306.72;5058902;28;46568;-73
2022/07/26 05:21:55;;;;;;;;;4.00;4.00;;;;;20.15;70.00;101314.53;5058675;28;45323;-73
2022/07/26 05:24:20;;;;;;;;;3.67;3.67;;;;;20.18;68.89;101311.38;5059037;28;45418;-73
2022/07/26 05:26:46;;;;;;;;;4.33;4.00;;;;;20.23;69.52;101318.78;5055576;28;47400;-73
2022/07/26 05:29:11;;;;;;;;;6.00;4.33;;;;;20.30;69.31;101323.03;5059661;28;45385;-72
2022/07/26 05:31:36;;;;;;;;;3.33;2.00;;;;;20.35;69.43;101318.88;5062520;28;45348;-72
2022/07/26 05:34:02;;;;;;;;;3.00;3.00;;;;;20.46;69.12;101330.75;5062455;28;45300;-73
2022/07/26 05:36:28;;;;;;;;;4.00;4.00;;;;;20.50;68.75;101330.09;5048545;28;45898;-73
2022/07/26 05:38:53;;;;;;;;;4.33;4.00;;;;;20.51;68.87;101322.81;5044072;28;48651;-73
2022/07/26 05:41:19;;;;;;;;;2.00;2.00;;;;;20.63;69.24;101325.56;5062192;28;45249;-72
2022/07/26 05:43:44;;;;;;;;;7.00;5.00;;;;;20.68;68.86;101334.63;5062318;28;45270;-73
2022/07/26 05:46:10;;;;;;;;;3.67;3.67;;;;;20.76;68.67;101324.56;5062067;28;45407;-73
2022/07/26 05:48:36;;;;;;;;;6.33;4.33;;;;;20.83;68.40;101329.88;5062273;28;46281;-73
2022/07/26 05:51:02;;;;;;;;;4.00;4.00;;;;;20.84;68.23;101318.03;5043961;28;45474;-73
2022/07/26 05:53:27;;;;;;;;;4.33;4.00;;;;;20.88;68.32;101319.22;5062209;28;45127;-73
2022/07/26 05:55:52;;;;;;;;;3.67;3.67;;;;;20.93;68.27;101322.91;5062249;28;45274;-73
2022/07/26 05:58:18;;;;;;;;;7.00;5.00;;;;;20.98;67.96;101329.50;5061771;28;46149;-73
2022/07/26 06:00:43;;;;;;;;;5.00;5.00;;;;;21.01;67.86;101337.16;5062094;28;45212;-72
2022/07/26 06:03:21;;;;;;;;;6.00;5.67;;;;;21.03;67.68;101335.03;5061959;28;45285;-73
2022/07/26 06:05:51;;;;;;;;;5.00;5.00;;;;;21.05;67.87;101343.75;5051366;28;46248;-73
2022/07/26 06:08:18;;;;;;;;;5.00;5.00;;;;;21.07;68.08;101338.91;5043182;28;47867;-73
2022/07/26 06:10:44;;;;;;;;;5.33;5.00;;;;;21.06;67.63;101338.09;5061684;28;45482;-73
2022/07/26 06:13:10;;;;;;;;;5.33;5.33;;;;;21.09;67.15;101347.63;5062013;28;45336;-73
2022/07/26 06:15:37;;;;;;;;;6.67;4.67;;;;;21.12;67.25;101343.63;5061512;28;45476;-73
2022/07/26 06:18:03;;;;;;;;;3.00;3.00;;;;;21.10;67.20;101345.75;5049835;28;47253;-73
2022/07/26 06:20:29;;;;;;;;;4.33;4.00;;;;;21.09;67.55;101352.19;5061624;28;45269;-73
2022/07/26 06:22:56;;;;;;;;;5.33;5.00;;;;;21.06;67.63;101345.38;5061597;28;45265;-72
2022/07/26 06:25:22;;;;;;;;;6.00;6.00;;;;;21.15;66.91;101352.09;5061326;28;45346;-73
2022/07/26 06:27:47;;;;;;;;;5.00;5.00;;;;;21.19;67.28;101356.00;5061508;28;46759;-72
2022/07/26 06:30:12;;;;;;;;;4.33;4.33;;;;;21.23;66.97;101367.16;5061302;28;45225;-73
2022/07/26 06:32:38;;;;;;;;;5.00;5.00;;;;;21.21;66.98;101360.31;5061655;28;45240;-73
2022/07/26 06:35:04;;;;;;;;;4.33;4.00;;;;;21.29;66.91;101362.72;5061578;28;45467;-72
2022/07/26 06:37:29;;;;;;;;;7.00;5.00;;;;;21.25;66.89;101351.53;5042873;28;48917;-73
2022/07/26 06:39:54;;;;;;;;;4.00;4.00;;;;;21.31;66.65;101352.50;5060830;28;45303;-73
2022/07/26 06:42:20;;;;;;;;;6.67;5.00;;;;;21.38;66.55;101363.19;5061666;28;45331;-73
2022/07/26 06:44:45;;;;;;;;;5.67;5.67;;;;;21.38;66.25;101358.63;5061132;28;45377;-73
2022/07/26 06:47:10;;;;;;;;;6.00;6.00;;;;;21.40;66.76;101355.69;5061270;28;45561;-73
2022/07/26 06:49:36;;;;;;;;;5.00;3.33;;;;;21.48;66.48;101360.75;5061022;28;45251;-73
2022/07/26 06:52:01;;;;;;;;;6.00;6.00;;;;;21.52;66.12;101364.63;5061274;28;45382;-73
2022/07/26 06:54:26;;;;;;;;;6.00;6.00;;;;;21.55;65.89;101364.16;5060791;28;45384;-73
2022/07/26 06:56:52;;;;;;;;;8.33;6.00;;;;;21.55;65.94;101356.06;5042925;28;47024;-73
2022/07/26 06:59:17;;;;;;;;;6.33;4.67;;;;;21.53;65.71;101355.47;5060938;28;45327;-73
2022/07/26 07:01:42;;;;;;;;;5.67;4.67;;;;;21.52;65.47;101356.50;5061026;28;45361;-73
2022/07/26 07:04:08;;;;;;;;;6.33;6.33;;;;;;;;5061061;28;45224;-72
2022/07/26 07:06:33;;;;;;;;;7.67;7.67;;;;;21.51;65.74;101357.59;5060762;28;45445;-73
2022/07/26 07:08:58;;;;;;;;;6.00;5.00;;;;;21.53;66.20;101360.88;5060916;28;45343;-73
2022/07/26 07:11:24;;;;;;;;;6.33;6.00;;;;;21.59;65.93;101358.28;5060843;28;45433;-72
2022/07/26 07:13:49;;;;;;;;;4.00;4.00;;;;;21.62;65.67;101361.38;5046487;28;46035;-74
2022/07/26 07:16:14;;;;;;;;;5.00;4.67;;;;;21.62;65.95;101357.81;5066240;28;46463;-73
2022/07/26 07:18:40;;;;;;;;;6.00;5.33;;;;;21.66;65.52;101356.28;5043518;28;45341;-73
2022/07/26 07:21:05;;;;;;;;;5.33;5.00;;;;;21.76;65.52;101361.97;5060863;28;45383;-73
2022/07/26 07:23:32;;;;;;;;;6.00;4.33;;;;;21.79;65.44;101364.22;5055808;28;46237;-73
2022/07/26 07:25:57;;;;;;;;;4.00;4.00;;;;;21.78;65.67;101361.75;5060100;28;46422;-73
2022/07/26 07:28:22;;;;;;;;;6.00;4.00;;;;;21.79;64.77;101358.81;5060214;28;45249;-72
2022/07/26 07:30:48;;;;;;;;;4.33;4.00;;;;;21.82;64.59;101357.53;5060596;28;45464;-73
2022/07/26 07:33:13;;;;;;;;;5.33;5.00;;;;;21.89;64.74;101368.22;5060646;28;45393;-74
2022/07/26 07:35:39;;;;;;;;;3.00;3.00;;;;;21.87;64.56;101370.31;5060302;28;45544;-73
2022/07/26 07:38:05;;;;;;;;;3.00;3.00;;;;;21.87;64.72;101367.63;5060381;28;45281;-74
2022/07/26 07:40:30;;;;;;;;;5.00;3.67;;;;;21.92;64.78;101363.16;5060504;28;45383;-73
2022/07/26 07:42:56;;;;;;;;;7.00;3.00;;;;;21.92;64.92;101355.06;5060264;28;45380;-73
2022/07/26 07:45:22;;;;;;;;;6.00;4.33;;;;;21.96;64.95;101371.63;5060140;28;46498;-73
2022/07/26 07:47:47;;;;;;;;;5.33;4.67;;;;;22.03;64.71;101371.53;5059983;28;45328;-73
2022/07/26 07:50:13;;;;;;;;;7.00;3.33;;;;;21.98;64.26;101372.22;5059472;28;45314;-74
2022/07/26 07:52:38;;;;;;;;;3.00;3.00;;;;;22.02;64.77;101367.16;5059805;28;45509;-73
2022/07/26 07:55:04;;;;;;;;;4.33;4.33;;;;;22.05;64.07;101382.91;5060205;28;46524;-73
2022/07/26 07:57:29;;;;;;;;;5.00;4.00;;;;;22.04;63.91;101382.09;5060140;28;45448;-73
2022/07/26 07:59:55;;;;;;;;;7.67;6.67;;;;;22.07;64.18;101381.63;5059855;28;45508;-73
2022/07/26 08:02:20;;;;;;;;;5.00;4.67;;;;;22.09;63.63;101376.00;5060017;28;45486;-72
2022/07/26 08:04:45;;;;;;;;;3.00;3.00;;;;;22.06;63.27;101369.16;5059846;28;46105;-73
2022/07/26 08:07:11;;;;;;;;;4.00;4.00;;;;;22.06;64.00;101366.44;5059862;28;45240;-73
2022/07/26 08:09:36;;;;;;;;;4.00;4.00;;;;;22.17;63.17;101372.06;5059857;28;45283;-73
2022/07/26 08:12:12;;;;;;;;;5.67;4.67;;;;;22.10;63.46;101361.38;5085281;27;45295;-73
2022/07/26 08:14:38;;;;;;;;;3.00;3.00;;;;;22.20;63.28;101364.31;5076146;28;45321;-73
2022/07/26 08:17:03;;;;;;;;;4.00;4.00;;;;;22.22;63.40;101361.38;5082585;27;45207;-73
2022/07/26 08:19:29;;;;;;;;;4.33;3.33;;;;;22.33;63.58;101371.34;5074774;28;47125;-73
2022/07/26 08:21:54;;;;;;;;;4.33;4.00;;;;;22.42;63.08;101362.88;5074278;28;48417;-72
2022/07/26 08:24:19;;;;;;;;;4.67;3.67;;;;;22.50;63.22;101369.78;5075857;28;45337;-73
2022/07/26 08:26:45;;;;;;;;;3.67;3.67;;;;;22.56;62.88;101379.66;5076282;28;45262;-73
2022/07/26 08:29:10;;;;;;;;;4.67;4.33;;;;;22.59;62.21;101376.50;5073934;28;47137;-72
2022/07/26 08:31:36;;;;;;;;;4.33;4.33;;;;;22.66;61.77;101381.78;5075788;28;46164;-73
2022/07/26 08:34:01;;;;;;;;;5.33;4.33;;;;;22.67;61.44;101378.00;5075419;28;45279;-73
2022/07/26 08:36:26;;;;;;;;;4.00;4.00;;;;;22.64;61.26;101383.91;5076105;28;45223;-73
2022/07/26 08:38:52;;;;;;;;;3.00;3.00;;;;;22.67;60.96;101375.31;5074340;28;47213;-72
2022/07/26 08:41:17;;;;;;;;;5.00;5.00;;;;;22.79;60.86;101375.25;5074076;28;46432;-73
2022/07/26 08:43:43;;;;;;;;;3.00;3.00;;;;;22.86;60.39;101380.56;5075537;28;45351;-73
2022/07/26 08:46:09;;;;;;;;;3.67;3.67;;;;;22.81;60.25;101384.78;5075641;28;45425;-73
2022/07/26 08:48:34;;;;;;;;;4.33;4.33;;;;;22.83;60.39;101379.13;5075439;28;45305;-73
2022/07/26 08:51:00;;;;;;;;;4.67;4.00;;;;;22.86;59.68;101380.56;5075420;28;46341;-74
2022/07/26 08:53:28;;;;;;;;;3.33;3.00;;;;;22.85;59.62;101387.84;5074169;28;45315;-74
2022/07/26 08:55:56;;;;;;;;;4.00;4.00;;;;;22.88;60.42;101387.38;5075817;28;45290;-73
2022/07/26 08:58:22;;;;;;;;;6.00;5.00;;;;;22.90;59.87;101387.13;5073737;28;47002;-73
2022/07/26 09:01:11;;;;;;;;;4.00;4.00;;;;;22.96;59.51;101386.16;5075352;28;45530;-73
2022/07/26 09:03:37;;;;;;;;;4.67;4.00;;;;;23.00;59.95;101394.59;5062428;28;45347;-74
2022/07/26 09:06:22;;;;;;;;;4.00;4.00;;;;;23.11;59.79;101399.19;5075453;28;45275;-73
2022/07/26 09:08:52;;;;;;;;;6.00;6.00;;;;;23.13;59.15;101378.06;5062790;28;45488;-73
2022/07/26 09:11:30;;;;;;;;;7.33;5.33;;;;;23.25;58.66;101396.97;5087903;27;45492;-73
2022/07/26 09:14:00;;;;;;;;;4.00;4.00;;;;;23.35;59.04;101400.94;5095437;27;45311;-74
2022/07/26 09:16:26;;;;;;;;;3.00;3.00;;;;;23.41;58.58;101389.13;5083751;27;45324;-73
2022/07/26 09:18:51;;;;;;;;;5.00;4.67;;;;;23.39;57.99;101394.81;5077225;27;46358;-73
2022/07/26 09:21:32;;;;;;;;;3.67;3.67;;;;;23.50;57.53;101394.97;5094879;27;45566;-73
2022/07/26 09:23:57;;;;;;;;;5.33;5.33;;;;;23.53;57.36;101400.75;5067841;28;45266;-73
2022/07/26 09:26:23;;;;;;;;;5.00;4.00;;;;;23.60;57.75;101397.03;5082131;28;45248;-73
2022/07/26 09:29:09;;;;;;;;;5.67;5.67;;;;;23.69;57.73;101404.50;5063031;28;46055;-74
2022/07/26 09:31:36;;;;;;;;;3.67;3.33;;;;;23.77;57.62;101410.59;5063509;28;48370;-72
2022/07/26 09:34:03;;;;;;;;;3.00;1.67;;;;;23.78;56.29;101414.94;5081495;28;45243;-74
2022/07/26 09:36:29;;;;;;;;;2.67;2.00;;;;;23.78;55.80;101407.63;5063609;28;45365;-73
2022/07/26 09:38:57;;;;;;;;;4.00;4.00;;;;;23.76;55.71;101401.63;5081375;28;45461;-73
2022/07/26 09:41:35;;;;;;;;;6.33;5.33;;;;;23.79;54.53;101413.91;5067397;28;46255;-73
2022/07/26 09:44:18;;;;;;;;;6.00;5.00;;;;;23.77;55.05;101408.72;5062997;28;45376;-73
2022/07/26 09:46:55;;;;;;;;;3.33;3.33;;;;;23.72;54.33;101414.03;5081802;28;45410;-73
2022/07/26 09:49:22;;;;;;;;;5.67;3.00;;;;;23.72;54.43;101408.63;5081374;28;45261;-73
2022/07/26 09:51:49;;;;;;;;;0.33;0.33;;;;;23.73;55.48;101415.69;5063207;28;48252;-73
2022/07/26 09:54:31;;;;;;;;;4.00;4.00;;;;;23.79;54.98;101420.13;5081473;28;45347;-73
2022/07/26 09:56:57;;;;;;;;;4.00;4.00;;;;;23.77;54.63;101413.31;5069460;28;45462;-73
2022/07/26 09:59:24;;;;;;;;;7.33;6.00;;;;;23.78;54.30;101415.78;5081081;28;45436;-73
2022/07/26 10:01:51;;;;;;;;;5.67;4.00;;;;;23.71;53.49;101412.41;5081289;28;45578;-73
2022/07/26 10:04:18;;;;;;;;;4.00;2.67;;;;;23.76;53.76;101425.25;5081218;28;45370;-74
2022/07/26 10:06:44;;;;;;;;;4.00;4.00;;;;;23.73;53.24;101421.09;5081225;28;45564;-73
2022/07/26 10:09:11;;;;;;;;;3.00;3.00;;;;;23.69;53.05;101417.25;5080917;28;45442;-73
2022/07/26 10:11:55;;;;;;;;;3.67;3.67;;;;;23.62;53.18;101413.88;5080759;28;45555;-75
2022/07/26 10:14:33;;;;;;;;;2.67;2.67;;;;;23.63;53.15;101424.50;5062453;28;45276;-73
2022/07/26 10:16:59;;;;;;;;;2.33;2.33;;;;;23.62;53.62;101419.31;5069762;28;45318;-73
2022/07/26 10:19:38;;;;;;;;;3.00;3.00;;;;;23.70;53.57;101427.84;5080967;28;45335;-74
2022/07/26 10:22:41;;;;;;;;;3.00;3.00;;;;;23.78;53.12;101425.78;5080495;28;45343;-73
2022/07/26 10:25:15;;;;;;;;;4.00;4.00;;;;;23.86;53.16;101435.41;5080862;28;45307;-73
2022/07/26 10:27:43;;;;;;;;;5.00;5.00;;;;;23.92;53.16;101427.13;5080910;28;45362;-73
2022/07/26 10:30:23;;;;;;;;;4.67;4.00;;;;;23.99;53.32;101431.53;5080541;28;45463;-73
2022/07/26 10:33:00;;;;;;;;;3.00;3.00;;;;;24.07;52.32;101423.00;5062209;28;47392;-73
2022/07/26 10:35:35;;;;;;;;;6.00;4.00;;;;;24.11;52.51;101437.69;5061554;28;45624;-73
2022/07/26 10:38:06;;;;;;;;;6.00;4.67;;;;;24.14;52.11;101422.81;5066655;28;45430;-72
2022/07/26 10:40:32;;;;;;;;;2.33;2.00;;;;;24.11;51.70;101418.69;5080327;28;45481;-74
2022/07/26 10:43:12;;;;;;;;;3.00;3.00;;;;;24.28;50.65;101431.44;5080435;28;45673;-73
2022/07/26 10:45:37;;;;;;;;;3.67;2.33;;;;;24.30;51.32;101429.31;5062230;28;46155;-73
2022/07/26 10:48:12;;;;;;;;;3.00;3.00;;;;;24.39;50.92;101424.28;5080408;28;45425;-73
2022/07/26 10:50:43;;;;;;;;;3.33;3.33;;;;;24.41;49.14;101430.25;5061953;28;47140;-73
2022/07/26 10:53:14;;;;;;;;;5.33;2.33;;;;;24.42;50.24;101423.78;5080060;28;45288;-73
2022/07/26 10:55:54;;;;;;;;;3.00;3.00;;;;;24.50;50.32;101431.47;5080459;28;45409;-73
2022/07/26 10:58:21;;;;;;;;;3.00;3.00;;;;;24.51;50.03;101426.88;5061941;28;45308;-73
2022/07/26 11:01:01;;;;;;;;;3.00;3.00;;;;;24.61;49.78;101431.59;5080309;28;45587;-73
2022/07/26 11:03:38;;;;;;;;;3.00;2.67;;;;;24.72;49.79;101433.34;5080194;28;45482;-74
2022/07/26 11:06:17;;;;;;;;;2.67;2.67;;;;;24.71;48.06;101431.72;5080110;28;45288;-73
2022/07/26 11:08:46;;;;;;;;;2.00;2.00;;;;;24.73;48.11;101440.44;5067111;28;45266;-74
2022/07/26 11:11:12;;;;;;;;;3.00;3.00;;;;;24.67;47.08;101430.59;5058495;28;46556;-74
2022/07/26 11:13:39;;;;;;;;;2.00;2.00;;;;;24.64;45.74;101437.34;5058288;28;47318;-74
2022/07/26 11:16:07;;;;;;;;;2.00;2.00;;;;;24.66;46.63;101423.53;5063754;28;45357;-74
2022/07/26 11:18:38;;;;;;;;;1.00;1.00;;;;;24.65;46.07;101419.13;5061950;28;45250;-73
2022/07/26 11:21:14;;;;;;;;;3.00;3.00;;;;;24.70;47.51;101413.78;5059716;28;45621;-74
2022/07/26 11:23:44;;;;;;;;;1.33;1.33;;;;;24.80;46.85;101413.91;5058007;28;47575;-74
2022/07/26 11:26:11;;;;;;;;;3.33;2.33;;;;;24.99;46.16;101418.22;5059817;28;45302;-74